• Join FlightAware (Why Join?)
  • Login
  • US Flag 
02:38PM EDT


 

Airport Tracker/Info


-or-


 

Live Flight TrackerFlight Track Log ✈ CPT7773 ✈ 08-May-2013 ✈ KCOD - KCPR

Flight Track Log - Related Links

Times and Time Zones

All times are in EDT time to prevent confusion due to time zone crossing. See the CPT7773 flight status page for this flight to view local times or setup timezone preferences in your user account.

Time Position Orientation Groundspeed Altitude Reporting Facility
EDT Latitude Longitude Course Direction KTS MPH feet Rate Location/Type
07:56PM 44.4942 -108.8047 120° Southeast 127 146 9,900  Level Salt Lake Center
07:57PM 44.4861 -108.7528 102° East 125 144 10,900 480 Climbing Salt Lake Center
07:58PM 44.3791 -108.7094 120° Southeast  Level FlightAware Approximate
07:58PM 44.4603 -108.7147 134° Southeast 132 152 11,000  Level Salt Lake Center
07:59PM 44.3573 -108.6570 120° Southeast  Level FlightAware Approximate
07:59PM 44.4247 -108.6619 133° Southeast 154 177 11,000  Level Salt Lake Center
08:00PM 44.3355 -108.6046 120° Southeast  Level FlightAware Approximate
08:00PM 44.3967 -108.6181 132° Southeast 159 183 11,100  Level Salt Lake Center
08:01PM 44.3137 -108.5522 120° Southeast  Level FlightAware Approximate
08:01PM 44.3642 -108.5667 131° Southeast 159 183 11,100  Level Salt Lake Center
08:02PM 44.3367 -108.5231 131° Southeast 158 182 11,100 -60 Level Salt Lake Center
08:03PM 44.3075 -108.4794 133° Southeast 158 182 11,000  Descending Salt Lake Center
08:04PM 44.2733 -108.4272 132° Southeast 161 185 11,100  Climbing Salt Lake Center
08:05PM 44.2417 -108.3800 133° Southeast 167 192 11,000  Descending Salt Lake Center
08:06PM 44.2086 -108.3278 131° Southeast 166 191 11,100  Climbing Salt Lake Center
08:07PM 44.1819 -108.2839 130° Southeast 161 185 11,000  Descending Salt Lake Center
08:08PM 44.1492 -108.2336 132° Southeast 158 182 11,100  Climbing Salt Lake Center
08:09PM 44.1214 -108.1903 132° Southeast 157 181 11,100  Level Salt Lake Center
08:10PM 44.0881 -108.1419 134° Southeast 156 180 11,100  Level Salt Lake Center
08:11PM 44.0594 -108.0994 133° Southeast 156 180 11,100  Level Salt Lake Center
08:13PM 44.0239 -108.0467 133° Southeast 162 186 11,100 -60 Level Salt Lake Center
08:14PM 43.9950 -108.0006 131° Southeast 164 189 11,000 -60 Descending Salt Lake Center
08:15PM 43.9656 -107.9556 132° Southeast 165 190 11,000  Level Salt Lake Center
08:16PM 43.9331 -107.9006 129° Southeast 165 190 11,000  Level Salt Lake Center
08:17PM 43.9094 -107.8500 123° Southeast 164 189 11,000  Level Salt Lake Center
08:18PM 43.8808 -107.7914 124° Southeast 164 189 11,000  Level Salt Lake Center
08:19PM 43.8547 -107.7411 126° Southeast 166 191 11,000  Level Salt Lake Center
08:20PM 43.8256 -107.6861 126° Southeast 162 186 11,000  Level Salt Lake Center
08:21PM 43.8017 -107.6356 123° Southeast 162 186 11,000  Level Salt Lake Center
08:22PM 43.7706 -107.5797 128° Southeast 163 188 11,000  Level Salt Lake Center
08:23PM 43.7458 -107.5311 125° Southeast 163 188 11,000  Level Salt Lake Center
08:24PM 43.7217 -107.4861 127° Southeast 159 183 11,000  Level Salt Lake Center
08:25PM 43.6950 -107.4294 123° Southeast 157 181 11,000  Level Salt Lake Center
08:26PM 43.6711 -107.3833 126° Southeast 156 180 11,000  Level Salt Lake Center
08:27PM 43.6431 -107.3294 126° Southeast 155 178 11,000  Level Salt Lake Center
08:28PM 43.6186 -107.2836 126° Southeast 155 178 11,000  Level Salt Lake Center
08:29PM 43.5911 -107.2325 127° Southeast 152 175 11,000  Level Salt Lake Center
08:30PM 43.5700 -107.1897 124° Southeast 147 169 11,000  Level Salt Lake Center
08:31PM 43.5483 -107.1475 125° Southeast 143 165 11,000  Level Salt Lake Center
08:32PM 43.5342 -107.1164 122° Southeast 144 166 11,000  Level Denver Center
08:33PM 43.5147 -107.0797 126° Southeast 147 169 11,000  Level Denver Center
08:34PM 43.4833 -107.0203 126° Southeast 149 171 11,000  Level Denver Center
08:35PM 43.4547 -106.9681 127° Southeast 151 174 11,000  Level Denver Center
08:36PM 43.4303 -106.9206 125° Southeast 155 178 11,000  Level Denver Center
08:37PM 43.4025 -106.8656 125° Southeast 156 180 11,000  Level Denver Center
08:38PM 43.3736 -106.8306 139° Southeast 149 171 11,000 -300 Level Denver Center
08:39PM 43.3267 -106.7978 153° Southeast 155 178 10,500 -540 Descending Denver Center
08:40PM 43.2836 -106.7633 150° Southeast 171 197 10,000 -360 Descending Denver Center
08:41PM 43.2411 -106.7311 151° Southeast 179 206 9,800 -540 Descending Denver Center
08:42PM 43.1906 -106.6983 155° Southeast 179 206 9,000 -840 Descending Denver Center
08:43PM 43.1417 -106.6761 162° South 183 211 8,100 -660 Descending Denver Center
08:44PM 43.1042 -106.6575 160° South 186 214 7,700 -420 Descending Denver Center
08:46PM 43.0539 -106.6078 144° Southeast  Level Estimated
08:53PM 42.9080 -106.4644 144° Southeast  Level Estimated
08:54PM 42.9080 -106.4644 90° East  Level Estimated
08:55PM 42.9080 -106.4644 90° East  Level Estimated
08:56PM 42.9080 -106.4644 90° East  Level Estimated
08:57PM 42.9080 -106.4644 90° East  Level Estimated
08:58PM 42.9080 -106.4644 90° East  Level Estimated